createdAt,value
2023-01-19T00:02:10.043Z,7.65
2023-01-19T00:07:16.154Z,7.37
2023-01-19T00:12:22.329Z,7.51
2023-01-19T00:17:28.439Z,7.72
2023-01-19T00:22:34.573Z,7.98
2023-01-19T00:27:40.680Z,7.75
2023-01-19T00:32:47.203Z,7.80
2023-01-19T00:37:53.269Z,7.65
2023-01-19T00:42:59.808Z,7.77
2023-01-19T00:48:05.469Z,7.73
2023-01-19T00:53:11.840Z,8.09
2023-01-19T00:58:18.085Z,8.22
2023-01-19T01:03:24.373Z,7.95
2023-01-19T01:08:30.454Z,8.29
2023-01-19T01:13:36.658Z,7.96
2023-01-19T01:18:42.807Z,8.75
2023-01-19T01:23:49.069Z,8.43
2023-01-19T01:28:55.121Z,8.28
2023-01-19T01:34:01.825Z,8.13
2023-01-19T01:39:07.953Z,8.09
2023-01-19T01:44:14.107Z,8.03
2023-01-19T01:49:20.269Z,8.07
2023-01-19T01:54:26.507Z,7.71
2023-01-19T01:55:40.748Z,9.10
2023-01-19T02:00:46.897Z,9.33
2023-01-19T02:05:52.639Z,7.61
2023-01-19T02:10:58.833Z,7.44
2023-01-19T02:16:04.996Z,7.53
2023-01-19T02:21:11.603Z,7.64
2023-01-19T02:26:17.939Z,7.27
2023-01-19T02:31:24.058Z,7.53
2023-01-19T02:36:30.287Z,7.64
2023-01-19T02:41:36.441Z,8.52
2023-01-19T02:46:42.747Z,8.18
2023-01-19T02:51:48.878Z,8.22
2023-01-19T02:56:55.069Z,8.78
2023-01-19T03:02:01.287Z,8.30
2023-01-19T03:07:07.558Z,8.88
2023-01-19T03:12:13.717Z,8.66
2023-01-19T03:17:20.005Z,8.67
2023-01-19T03:22:26.196Z,8.51
2023-01-19T03:27:33.406Z,8.31
2023-01-19T03:32:39.586Z,8.22
2023-01-19T03:37:45.764Z,8.48
2023-01-19T03:42:51.915Z,8.16
2023-01-19T03:47:58.160Z,8.15
2023-01-19T03:53:04.274Z,8.89
2023-01-19T03:58:10.432Z,8.86
2023-01-19T04:03:16.551Z,9.04
2023-01-19T04:08:22.759Z,8.89
2023-01-19T04:13:28.891Z,8.92
2023-01-19T04:18:35.108Z,8.97
2023-01-19T04:23:41.175Z,9.05
2023-01-19T04:28:47.400Z,8.86
2023-01-19T04:33:53.520Z,8.91
2023-01-19T04:38:59.736Z,9.35
2023-01-19T04:44:05.856Z,9.76
2023-01-19T04:49:12.008Z,9.98
2023-01-19T04:54:18.113Z,10.27
2023-01-19T04:59:24.390Z,10.71
2023-01-19T05:04:30.469Z,10.56
2023-01-19T05:09:36.745Z,11.14
2023-01-19T05:14:42.890Z,11.77
2023-01-19T05:19:49.098Z,11.47
2023-01-19T05:24:55.163Z,12.21
2023-01-19T05:30:01.405Z,11.55
2023-01-19T05:35:08.333Z,12.11
2023-01-19T05:40:14.644Z,11.85
2023-01-19T05:45:20.739Z,12.52
2023-01-19T05:50:27.055Z,12.92
2023-01-19T05:55:33.157Z,12.83
2023-01-19T06:00:39.402Z,12.80
2023-01-19T06:05:45.517Z,13.22
2023-01-19T06:10:51.813Z,12.65
2023-01-19T06:15:58.058Z,12.40
2023-01-19T06:21:04.302Z,12.20
2023-01-19T06:26:10.397Z,12.12
2023-01-19T06:31:16.793Z,11.84
2023-01-19T06:36:22.810Z,11.68
2023-01-19T06:41:29.083Z,12.23
2023-01-19T06:46:35.223Z,12.14
2023-01-19T06:51:41.430Z,11.69
2023-01-19T06:56:47.554Z,11.80
2023-01-19T07:01:53.921Z,11.92
2023-01-19T07:06:59.820Z,11.85
2023-01-19T07:12:06.109Z,12.02
2023-01-19T07:17:12.385Z,11.94
2023-01-19T07:22:18.854Z,11.84
2023-01-19T07:27:24.919Z,11.29
2023-01-19T07:32:31.284Z,11.81
2023-01-19T07:37:37.335Z,11.25
2023-01-19T07:42:43.643Z,11.70
2023-01-19T07:47:50.805Z,11.30
2023-01-19T07:52:57.252Z,10.83
2023-01-19T07:58:03.355Z,11.39
2023-01-19T08:03:09.701Z,10.74
2023-01-19T08:08:15.798Z,10.33
2023-01-19T08:13:22.174Z,10.55
2023-01-19T08:18:28.276Z,10.12
2023-01-19T08:23:34.479Z,9.76
2023-01-19T08:28:40.661Z,9.32
2023-01-19T08:33:47.231Z,8.88
2023-01-19T08:38:53.347Z,8.95
2023-01-19T08:43:59.669Z,8.36
2023-01-19T08:49:05.766Z,8.35
2023-01-19T08:54:11.945Z,8.45
2023-01-19T08:59:18.038Z,8.69
2023-01-19T09:04:24.251Z,8.22
2023-01-19T09:09:30.341Z,8.15
2023-01-19T09:14:36.645Z,8.12
2023-01-19T09:19:42.730Z,12.09
2023-01-19T09:24:48.898Z,8.04
2023-01-19T09:29:55.047Z,7.88
2023-01-19T09:35:02.280Z,7.75
2023-01-19T09:40:08.468Z,7.23
2023-01-19T09:45:14.701Z,6.94
2023-01-19T09:50:20.704Z,6.69
2023-01-19T09:55:26.848Z,7.00
2023-01-19T10:00:33.133Z,6.76
2023-01-19T10:05:39.444Z,5.83
2023-01-19T10:10:45.515Z,5.35
2023-01-19T10:15:51.698Z,4.88
2023-01-19T10:20:57.776Z,4.71
2023-01-19T10:26:04.023Z,3.57
2023-01-19T10:31:10.293Z,2.49
2023-01-19T10:36:16.505Z,2.36
2023-01-19T10:41:22.548Z,2.45
2023-01-19T10:46:28.832Z,2.37
2023-01-19T10:51:35.001Z,2.38
2023-01-19T10:56:41.114Z,2.18
2023-01-19T11:01:47.438Z,2.04
2023-01-19T11:06:53.414Z,2.16
2023-01-19T11:11:59.512Z,2.01
2023-01-19T11:17:05.664Z,2.00
2023-01-19T11:22:11.742Z,2.24
2023-01-19T11:27:17.934Z,2.08
2023-01-19T11:32:24.103Z,2.21
2023-01-19T11:37:30.337Z,2.13
2023-01-19T11:42:36.429Z,2.02
2023-01-19T11:47:42.579Z,1.85
2023-01-19T11:52:48.715Z,1.61
2023-01-19T11:57:55.065Z,2.03
2023-01-19T12:03:01.176Z,2.82
2023-01-19T12:08:07.785Z,1.98
2023-01-19T12:13:13.034Z,1.79
2023-01-19T12:18:19.257Z,1.66
2023-01-19T12:23:25.362Z,1.89
2023-01-19T12:28:31.538Z,1.58
2023-01-19T12:33:37.585Z,1.77
2023-01-19T12:38:43.765Z,1.72
2023-01-19T12:43:49.941Z,1.97
2023-01-19T12:48:56.230Z,1.81
2023-01-19T12:54:02.355Z,1.69
2023-01-19T12:59:08.749Z,1.82
2023-01-19T13:04:14.866Z,1.80
2023-01-19T13:09:21.103Z,1.61
2023-01-19T13:14:27.251Z,1.73
2023-01-19T13:19:33.466Z,1.56
2023-01-19T13:24:39.647Z,1.63
2023-01-19T13:29:45.980Z,1.70
2023-01-19T13:34:52.148Z,1.47
2023-01-19T13:39:58.681Z,1.48
2023-01-19T13:45:04.548Z,1.56
2023-01-19T13:50:10.815Z,1.58
2023-01-19T13:55:17.008Z,1.55
2023-01-19T14:00:23.130Z,1.88
2023-01-19T14:05:29.217Z,1.81
2023-01-19T14:10:35.479Z,1.75
2023-01-19T14:15:41.673Z,1.86
2023-01-19T14:20:47.799Z,1.59
2023-01-19T14:25:53.929Z,1.57
2023-01-19T14:31:00.369Z,1.85
2023-01-19T14:36:06.317Z,1.89
2023-01-19T14:41:12.568Z,1.63
2023-01-19T14:46:18.696Z,1.94
2023-01-19T14:51:24.803Z,1.63
2023-01-19T14:56:30.967Z,1.73
2023-01-19T15:01:37.411Z,1.45
2023-01-19T15:06:43.325Z,1.81
2023-01-19T15:11:49.499Z,2.40
2023-01-19T15:16:55.679Z,1.89
2023-01-19T15:22:01.893Z,1.85
2023-01-19T15:27:07.981Z,1.97
2023-01-19T15:32:14.119Z,1.97
2023-01-19T15:37:20.290Z,1.88
2023-01-19T15:42:26.551Z,1.86
2023-01-19T15:47:32.652Z,1.99
2023-01-19T15:52:38.819Z,2.30
2023-01-19T15:57:44.949Z,1.69
2023-01-19T16:02:51.257Z,1.86
2023-01-19T16:07:57.280Z,1.87
2023-01-19T16:13:03.613Z,2.53
2023-01-19T16:18:09.744Z,2.66
2023-01-19T16:23:16.116Z,3.15
2023-01-19T16:28:22.040Z,2.89
2023-01-19T16:33:28.196Z,3.19
2023-01-19T16:38:34.396Z,2.65
2023-01-19T16:43:40.787Z,2.48
2023-01-19T16:48:46.954Z,2.47
2023-01-19T16:53:53.107Z,2.92
2023-01-19T16:58:59.235Z,6.01
2023-01-19T17:04:05.454Z,7.25
2023-01-19T17:09:11.580Z,4.89
2023-01-19T17:14:17.921Z,2.73
2023-01-19T17:19:24.009Z,2.96
2023-01-19T17:24:30.160Z,2.68
2023-01-19T17:29:36.389Z,2.47
2023-01-19T17:34:42.630Z,2.29
2023-01-19T17:39:48.705Z,2.23
2023-01-19T17:44:54.871Z,2.07
2023-01-19T17:50:01.083Z,1.96
2023-01-19T17:55:07.680Z,2.45
2023-01-19T18:00:13.946Z,2.46
2023-01-19T18:05:19.994Z,3.95
2023-01-19T18:10:26.146Z,9.67
2023-01-19T18:15:32.940Z,5.05
2023-01-19T18:20:39.511Z,2.97
2023-01-19T18:25:47.308Z,2.83
2023-01-19T18:30:54.034Z,2.74
2023-01-19T18:36:00.864Z,2.43
2023-01-19T18:41:07.328Z,2.51
2023-01-19T18:47:26.246Z,2.43
2023-01-19T18:52:32.446Z,2.21
2023-01-19T18:57:38.688Z,2.16
2023-01-19T19:02:44.786Z,2.23
2023-01-19T19:07:51.052Z,1.99
2023-01-19T19:12:57.199Z,2.00
2023-01-19T19:18:03.421Z,2.02
2023-01-19T19:23:09.549Z,2.11
2023-01-19T19:28:15.775Z,2.02
2023-01-19T19:33:22.941Z,2.37
2023-01-19T19:38:29.097Z,2.38
2023-01-19T19:43:35.197Z,2.24
2023-01-19T19:48:41.447Z,2.52
2023-01-19T19:53:50.941Z,2.30
2023-01-19T19:58:54.338Z,2.69
2023-01-19T20:04:00.414Z,2.61
2023-01-19T20:09:06.740Z,2.04
2023-01-19T20:14:12.938Z,2.31
2023-01-19T20:19:20.816Z,2.23
2023-01-19T20:24:27.578Z,2.47
2023-01-19T20:29:35.282Z,2.07
2023-01-19T20:34:42.032Z,2.17
2023-01-19T20:39:48.697Z,2.17
2023-01-19T20:44:54.884Z,2.47
2023-01-19T20:50:01.243Z,2.37
2023-01-19T20:55:07.728Z,2.26
2023-01-19T21:00:13.973Z,2.04
2023-01-19T21:05:20.160Z,2.27
2023-01-19T21:10:26.336Z,2.32
2023-01-19T21:15:32.484Z,2.20
2023-01-19T21:20:38.734Z,2.08
2023-01-19T21:25:44.867Z,2.38
2023-01-19T21:30:51.103Z,2.30
2023-01-19T21:35:57.231Z,2.32
2023-01-19T21:41:03.473Z,2.31
2023-01-19T21:46:09.642Z,2.18
2023-01-19T21:51:16.685Z,2.52
2023-01-19T21:56:22.771Z,2.46
2023-01-19T22:01:29.070Z,2.31
2023-01-19T22:06:35.126Z,2.34
2023-01-19T22:11:41.460Z,2.43
2023-01-19T22:16:47.663Z,2.37
2023-01-19T22:21:53.916Z,2.24
2023-01-19T22:27:00.093Z,2.54
2023-01-19T22:32:06.494Z,2.59
2023-01-19T22:37:12.579Z,2.58
2023-01-19T22:42:18.932Z,2.33
2023-01-19T22:47:25.092Z,2.61
2023-01-19T22:52:31.323Z,2.34
2023-01-19T22:57:37.421Z,3.88
2023-01-19T23:02:43.733Z,2.49
2023-01-19T23:07:49.807Z,2.71
2023-01-19T23:12:56.373Z,2.80
2023-01-19T23:18:02.467Z,2.45
2023-01-19T23:23:08.748Z,2.61
2023-01-19T23:28:14.879Z,2.66
2023-01-19T23:33:21.440Z,2.57
2023-01-19T23:38:27.523Z,2.72
2023-01-19T23:43:33.760Z,2.71
2023-01-19T23:48:39.888Z,2.98
2023-01-19T23:53:46.021Z,2.80
2023-01-19T23:58:52.078Z,2.83
